Bethel Heights, Arkansas
Current Conditions -  °F | °C
As of 8:48 PM on Monday 20 Oct 2014 (Local Time) from KASG Reporting Station
Haze Haze  
Wind Chill: 57°   Ceiling: Unl
Heat Index: 57°   Visibility: 4mi
Dew Point: 55°   Wind: 0mph
Humidity: 94%   Direction: NA
Pressure: 30.09"   Gusts: NA
Location:  36.1771°N, 94.0897°W
Report Text: KASG 210148Z 00000KT 4SM BR SKC 14/13 A3009 RMK LAST
Loading
Personal Weather Stations






























Interactive Weather Map
Tropical Storm Tracking
New forecast layout! Learn more

10-Day Weather Forecast

Advertisements
Track Severe Weather on mobile